createdAt,value
2022-10-23T00:01:16.571Z,101326.00
2022-10-23T00:03:47.516Z,101324.22
2022-10-23T00:06:16.194Z,101317.25
2022-10-23T00:08:45.252Z,101302.41
2022-10-23T00:11:15.759Z,101301.38
2022-10-23T00:13:44.031Z,101300.44
2022-10-23T00:16:12.906Z,101293.50
2022-10-23T00:18:41.389Z,101284.84
2022-10-23T00:21:12.766Z,101291.81
2022-10-23T00:23:41.601Z,101289.44
2022-10-23T00:26:15.180Z,101288.75
2022-10-23T00:28:43.969Z,101295.91
2022-10-23T00:31:14.681Z,101290.81
2022-10-23T00:33:43.689Z,101296.84
2022-10-23T00:36:14.886Z,101295.13
2022-10-23T00:38:43.188Z,101293.78
2022-10-23T00:41:22.466Z,101287.75
2022-10-23T00:44:00.425Z,101289.47
2022-10-23T00:46:29.049Z,101289.63
2022-10-23T00:48:58.386Z,101295.72
2022-10-23T00:51:30.672Z,101290.53
2022-10-23T00:56:53.110Z,101279.47
2022-10-23T00:59:21.106Z,101280.38
2022-10-23T01:01:49.495Z,101283.03
2022-10-23T01:04:17.792Z,101280.38
2022-10-23T01:06:58.759Z,101278.59
2022-10-23T01:09:35.051Z,101280.72
2022-10-23T01:12:11.580Z,101277.34
2022-10-23T01:14:49.450Z,101273.72
2022-10-23T01:17:26.924Z,101273.94
2022-10-23T01:20:08.495Z,101275.75
2022-10-23T01:22:55.593Z,101277.59
2022-10-23T01:25:35.110Z,101278.53
2022-10-23T01:28:10.098Z,101283.13
2022-10-23T01:30:43.959Z,101275.41
2022-10-23T01:33:16.264Z,101269.28
2022-10-23T01:35:48.635Z,101262.28
2022-10-23T01:38:21.067Z,101257.75
2022-10-23T01:40:57.663Z,101254.22
2022-10-23T01:43:30.975Z,101261.16
2022-10-23T01:46:02.888Z,101260.31
2022-10-23T01:48:34.523Z,101263.78
2022-10-23T01:51:06.444Z,101254.97
2022-10-23T01:53:41.284Z,101239.28
2022-10-23T01:56:13.376Z,101245.31
2022-10-23T01:58:45.326Z,101245.41
2022-10-23T02:01:16.107Z,101243.59
2022-10-23T02:03:45.981Z,101235.72
2022-10-23T02:06:14.124Z,101234.88
2022-10-23T02:08:42.473Z,101233.88
2022-10-23T02:11:12.328Z,101235.72
2022-10-23T02:13:47.033Z,101235.72
2022-10-23T02:16:24.376Z,101224.47
2022-10-23T02:18:58.663Z,101218.44
2022-10-23T02:21:35.305Z,101222.09
2022-10-23T02:24:08.616Z,101217.75
2022-10-23T02:26:41.776Z,101216.09
2022-10-23T02:29:17.135Z,101201.94
2022-10-23T02:31:45.278Z,101200.31
2022-10-23T02:34:13.422Z,101189.91
2022-10-23T02:36:42.263Z,101204.72
2022-10-23T02:39:10.748Z,101200.22
2022-10-23T02:41:44.226Z,101203.69
2022-10-23T02:44:25.827Z,101205.56
2022-10-23T02:47:02.062Z,101207.34
2022-10-23T02:49:38.107Z,101204.88
2022-10-23T02:52:14.398Z,101211.06
2022-10-23T02:54:58.359Z,101214.16
2022-10-23T02:57:33.423Z,101203.78
2022-10-23T03:00:12.102Z,101201.16
2022-10-23T03:02:42.636Z,101198.81
2022-10-23T03:05:15.079Z,101199.81
2022-10-23T03:07:47.242Z,101196.09
2022-10-23T03:10:15.422Z,101182.13
2022-10-23T03:12:44.101Z,101178.63
2022-10-23T03:15:14.241Z,101167.38
2022-10-23T03:17:43.638Z,101170.75
2022-10-23T03:20:12.555Z,101168.13
2022-10-23T03:22:41.212Z,101167.28
2022-10-23T03:25:10.367Z,101163.88
2022-10-23T03:27:38.679Z,101160.25
2022-10-23T03:30:08.166Z,101155.09
2022-10-23T03:32:37.774Z,101157.63
2022-10-23T03:35:06.780Z,101148.06
2022-10-23T03:37:34.841Z,101146.19
2022-10-23T03:40:03.166Z,101145.34
2022-10-23T03:42:31.202Z,101134.75
2022-10-23T03:44:59.251Z,101133.88
2022-10-23T03:47:27.291Z,101137.38
2022-10-23T03:49:56.770Z,101143.56
2022-10-23T03:54:58.140Z,101130.25
2022-10-23T03:57:26.691Z,101121.44
2022-10-23T03:59:54.813Z,101121.34
2022-10-23T04:02:23.017Z,101112.72
2022-10-23T04:04:51.194Z,101116.94
2022-10-23T04:07:20.652Z,101115.16
2022-10-23T04:09:48.716Z,101109.81
2022-10-23T04:12:16.930Z,101112.25
2022-10-23T04:14:45.060Z,101109.47
2022-10-23T04:17:13.104Z,101098.78
2022-10-23T04:19:41.094Z,101098.69
2022-10-23T04:22:09.192Z,101088.94
2022-10-23T04:24:38.607Z,101081.88
2022-10-23T04:27:06.780Z,101081.59
2022-10-23T04:29:34.772Z,101082.09
2022-10-23T04:32:03.239Z,101081.94
2022-10-23T04:34:31.255Z,101085.88
2022-10-23T04:36:59.569Z,101086.44
2022-10-23T04:39:27.650Z,101090.59
2022-10-23T04:41:57.281Z,101094.56
2022-10-23T04:44:25.362Z,101078.22
2022-10-23T04:46:53.805Z,101073.81
2022-10-23T04:49:21.986Z,101080.84
2022-10-23T04:51:50.073Z,101086.88
2022-10-23T04:54:18.145Z,101075.38
2022-10-23T04:56:46.186Z,101077.94
2022-10-23T04:59:15.614Z,101068.25
2022-10-23T05:01:43.718Z,101065.63
2022-10-23T05:04:11.963Z,101055.78
2022-10-23T05:06:39.970Z,101059.25
2022-10-23T05:09:08.310Z,101063.75
2022-10-23T05:11:36.689Z,101059.16
2022-10-23T05:14:04.713Z,101058.13
2022-10-23T05:16:43.852Z,101052.03
2022-10-23T05:19:22.023Z,101053.69
2022-10-23T05:21:56.068Z,101051.06
2022-10-23T05:24:24.479Z,101053.59
2022-10-23T05:26:53.796Z,101057.75
2022-10-23T05:29:22.135Z,101052.56
2022-10-23T05:31:55.749Z,101048.06
2022-10-23T05:34:26.805Z,101043.66
2022-10-23T05:36:55.797Z,101044.59
2022-10-23T05:39:25.208Z,101040.66
2022-10-23T05:41:55.104Z,101035.19
2022-10-23T05:44:23.259Z,101040.56
2022-10-23T05:46:52.842Z,101047.22
2022-10-23T05:49:20.932Z,101052.16
2022-10-23T05:51:48.979Z,101048.50
2022-10-23T05:54:17.173Z,101047.38
2022-10-23T05:56:45.185Z,101042.03
2022-10-23T05:59:13.276Z,101027.91
2022-10-23T06:01:41.426Z,101033.84
2022-10-23T06:04:10.999Z,101038.91
2022-10-23T06:06:39.119Z,101034.09
2022-10-23T06:09:07.259Z,101036.53
2022-10-23T06:11:35.243Z,101031.91
2022-10-23T06:14:03.298Z,101037.09
2022-10-23T06:16:31.364Z,101021.19
2022-10-23T06:19:00.253Z,101018.56
2022-10-23T06:21:29.993Z,101019.00
2022-10-23T06:23:58.083Z,101014.50
2022-10-23T06:26:26.189Z,101013.53
2022-10-23T06:28:54.668Z,101012.50
2022-10-23T06:31:26.826Z,100999.22
2022-10-23T06:33:56.031Z,101006.09
2022-10-23T06:36:24.419Z,101000.66
2022-10-23T06:38:56.370Z,101000.44
2022-10-23T06:41:24.590Z,100996.00
2022-10-23T06:43:53.413Z,100990.63
2022-10-23T06:46:22.063Z,100992.22
2022-10-23T06:48:50.181Z,100994.56
2022-10-23T06:51:19.156Z,100984.66
2022-10-23T06:53:47.611Z,100992.16
2022-10-23T06:56:17.268Z,100995.44
2022-10-23T06:58:45.270Z,100998.09
2022-10-23T07:01:16.308Z,100994.47
2022-10-23T07:03:45.055Z,100984.59
2022-10-23T07:06:13.227Z,100981.84
2022-10-23T07:08:41.677Z,100978.06
2022-10-23T07:11:11.401Z,100983.13
2022-10-23T07:13:42.725Z,100977.84
2022-10-23T07:16:13.466Z,100981.03
2022-10-23T07:18:41.618Z,100987.97
2022-10-23T07:21:09.989Z,100986.00
2022-10-23T07:23:37.970Z,100975.34
2022-10-23T07:26:08.300Z,100980.41
2022-10-23T07:28:36.843Z,100971.44
2022-10-23T07:31:06.641Z,100973.03
2022-10-23T07:33:34.884Z,100972.81
2022-10-23T07:36:05.846Z,100976.38
2022-10-23T07:38:33.881Z,100974.09
2022-10-23T07:41:02.961Z,100971.16
2022-10-23T07:46:00.303Z,100966.41
2022-10-23T07:48:31.017Z,100968.97
2022-10-23T07:51:01.030Z,100964.19
2022-10-23T07:53:30.044Z,100965.56
2022-10-23T07:56:00.015Z,100952.88
2022-10-23T07:58:29.160Z,100958.16
2022-10-23T08:01:02.530Z,100953.59
2022-10-23T08:03:34.069Z,100948.97
2022-10-23T08:06:02.135Z,100954.88
2022-10-23T08:08:30.127Z,100955.59
2022-10-23T08:10:58.583Z,100955.25
2022-10-23T08:13:26.611Z,100949.66
2022-10-23T08:15:55.987Z,100953.00
2022-10-23T08:18:24.031Z,100956.16
2022-10-23T08:20:53.631Z,100949.72
2022-10-23T08:23:24.106Z,100936.28
2022-10-23T08:25:58.635Z,100947.03
2022-10-23T08:28:26.888Z,100943.53
2022-10-23T08:30:54.959Z,100939.00
2022-10-23T08:33:23.720Z,100939.53
2022-10-23T08:35:53.261Z,100932.31
2022-10-23T08:38:21.557Z,100922.38
2022-10-23T08:40:50.446Z,100920.25
2022-10-23T08:43:24.270Z,100918.09
2022-10-23T08:45:56.454Z,100923.06
2022-10-23T08:48:30.450Z,100914.06
2022-10-23T08:51:07.367Z,100912.75
2022-10-23T08:53:42.275Z,100909.63
2022-10-23T08:56:15.431Z,100913.03
2022-10-23T08:58:48.286Z,100900.69
2022-10-23T09:01:31.943Z,100885.22
2022-10-23T09:04:00.752Z,100907.34
2022-10-23T09:06:40.473Z,100903.75
2022-10-23T09:09:39.519Z,100906.88
2022-10-23T09:12:15.290Z,100892.13
2022-10-23T09:15:04.061Z,100885.38
2022-10-23T09:17:34.571Z,100881.41
2022-10-23T09:20:14.076Z,100877.34
2022-10-23T09:22:44.390Z,100869.03
2022-10-23T09:25:17.418Z,100870.47
2022-10-23T09:27:51.874Z,100866.03
2022-10-23T09:30:35.562Z,100863.50
2022-10-23T09:33:15.702Z,100866.63
2022-10-23T09:35:57.908Z,100858.31
2022-10-23T09:38:34.004Z,100859.41
2022-10-23T09:41:07.356Z,100861.09
2022-10-23T09:43:35.583Z,100848.94
2022-10-23T09:46:06.378Z,100855.53
2022-10-23T09:48:35.805Z,100854.31
2022-10-23T09:51:06.013Z,100852.53
2022-10-23T09:53:38.965Z,100847.69
2022-10-23T09:56:25.125Z,100848.28
2022-10-23T09:58:57.152Z,100842.59
2022-10-23T10:01:26.870Z,100833.47
2022-10-23T10:03:55.366Z,100822.63
2022-10-23T10:06:28.838Z,100827.53
2022-10-23T10:09:00.097Z,100833.47
2022-10-23T10:11:35.206Z,100829.47
2022-10-23T10:14:21.033Z,100817.78
2022-10-23T10:16:53.137Z,100806.94
2022-10-23T10:19:35.240Z,100816.69
2022-10-23T10:22:12.965Z,100809.31
2022-10-23T10:24:53.100Z,100805.53
2022-10-23T10:27:36.501Z,100799.00
2022-10-23T10:30:11.809Z,100797.19
2022-10-23T10:32:44.677Z,100792.47
2022-10-23T10:35:23.723Z,100792.06
2022-10-23T10:38:15.249Z,100784.59
2022-10-23T10:41:01.882Z,100781.66
2022-10-23T10:43:37.975Z,100773.91
2022-10-23T10:46:13.609Z,100770.44
2022-10-23T10:48:49.370Z,100766.84
2022-10-23T10:51:26.190Z,100753.34
2022-10-23T10:54:05.117Z,100744.41
2022-10-23T10:56:39.872Z,100731.16
2022-10-23T10:59:17.396Z,100725.28
2022-10-23T11:01:51.837Z,100723.53
2022-10-23T11:04:33.269Z,100710.56
2022-10-23T11:07:07.885Z,100708.91
2022-10-23T11:09:36.152Z,100698.59
2022-10-23T11:12:05.976Z,100706.00
2022-10-23T11:14:35.620Z,100703.91
2022-10-23T11:17:10.381Z,100691.97
2022-10-23T11:19:44.952Z,100695.88
2022-10-23T11:22:23.141Z,100697.25
2022-10-23T11:25:22.590Z,100695.63
2022-10-23T11:28:31.693Z,100687.81
2022-10-23T11:31:15.342Z,100686.97
2022-10-23T11:34:21.962Z,100689.19
2022-10-23T11:36:54.323Z,100686.66
2022-10-23T11:39:25.148Z,100670.72
2022-10-23T11:41:56.189Z,100667.66
2022-10-23T11:44:43.624Z,100666.78
2022-10-23T11:47:36.456Z,100651.25
2022-10-23T11:50:16.441Z,100634.91
2022-10-23T11:53:12.888Z,100629.38
2022-10-23T11:55:58.827Z,100623.38
2022-10-23T11:58:32.105Z,100632.44
2022-10-23T12:01:18.254Z,100624.88
2022-10-23T12:03:53.343Z,100624.66
2022-10-23T12:06:26.542Z,100614.97
2022-10-23T12:08:58.996Z,100605.88
2022-10-23T12:11:40.112Z,100612.19
2022-10-23T12:14:26.851Z,100620.47
2022-10-23T12:16:56.659Z,100617.44
2022-10-23T12:19:26.640Z,100611.75
2022-10-23T12:21:56.572Z,100601.25
2022-10-23T12:24:40.467Z,100605.06
2022-10-23T12:27:29.787Z,100597.63
2022-10-23T12:30:20.197Z,100596.81
2022-10-23T12:33:14.504Z,100599.38
2022-10-23T12:36:18.402Z,100589.59
2022-10-23T12:38:49.809Z,100585.09
2022-10-23T12:41:25.468Z,100583.66
2022-10-23T12:43:57.113Z,100581.50
2022-10-23T12:46:34.176Z,100577.84
2022-10-23T12:49:14.196Z,100576.41
2022-10-23T12:51:42.587Z,100571.59
2022-10-23T12:54:17.131Z,100562.31
2022-10-23T12:56:45.466Z,100557.34
2022-10-23T12:59:18.203Z,100552.69
2022-10-23T13:01:50.462Z,100553.16
2022-10-23T13:04:29.464Z,100538.34
2022-10-23T13:06:59.865Z,100538.84
2022-10-23T13:09:32.708Z,100534.41
2022-10-23T13:12:02.009Z,100529.78
2022-10-23T13:14:34.311Z,100534.41
2022-10-23T13:17:06.228Z,100532.13
2022-10-23T13:19:36.183Z,100530.25
2022-10-23T13:22:06.157Z,100526.13
2022-10-23T13:24:34.280Z,100520.13
2022-10-23T13:27:02.314Z,100512.75
2022-10-23T13:29:33.015Z,100501.31
2022-10-23T13:32:11.441Z,100500.16
2022-10-23T13:34:41.178Z,100493.19
2022-10-23T13:37:24.814Z,100482.31
2022-10-23T13:40:02.030Z,100482.00
2022-10-23T13:42:30.101Z,100477.53
2022-10-23T13:44:58.187Z,100465.56
2022-10-23T13:47:26.238Z,100478.34
2022-10-23T13:49:55.673Z,100472.06
2022-10-23T13:52:24.548Z,100463.53
2022-10-23T13:54:52.613Z,100463.53
2022-10-23T13:57:20.655Z,100455.03
2022-10-23T13:59:48.688Z,100438.25
2022-10-23T14:02:21.512Z,100434.09
2022-10-23T14:04:49.973Z,100435.75
2022-10-23T14:07:19.483Z,100429.09
2022-10-23T14:09:48.481Z,100421.44
2022-10-23T14:12:18.404Z,100427.94
2022-10-23T14:14:46.388Z,100433.59
2022-10-23T14:17:14.497Z,100425.44
2022-10-23T14:19:42.522Z,100422.97
2022-10-23T14:22:10.776Z,100423.13
2022-10-23T14:24:40.321Z,100422.28
2022-10-23T14:27:08.700Z,100417.44
2022-10-23T14:29:36.812Z,100414.78
2022-10-23T14:32:05.437Z,100414.78
2022-10-23T14:34:33.889Z,100416.94
2022-10-23T14:37:08.929Z,100411.22
2022-10-23T14:39:37.501Z,100407.75
2022-10-23T14:42:07.014Z,100410.41
2022-10-23T14:44:35.146Z,100394.59
2022-10-23T14:47:03.192Z,100391.59
2022-10-23T14:49:31.318Z,100385.91
2022-10-23T14:51:59.824Z,100400.25
2022-10-23T14:54:29.372Z,100402.59
2022-10-23T14:56:57.490Z,100394.88
2022-10-23T14:59:27.090Z,100394.88
2022-10-23T15:01:55.389Z,100403.53
2022-10-23T15:04:25.834Z,100391.88
2022-10-23T15:06:55.070Z,100391.53
2022-10-23T15:09:23.367Z,100404.50
2022-10-23T15:11:51.413Z,100401.47
2022-10-23T15:14:20.061Z,100403.28
2022-10-23T15:16:49.773Z,100400.13
2022-10-23T15:19:18.809Z,100391.63
2022-10-23T15:21:47.626Z,100371.69
2022-10-23T15:24:15.874Z,100361.00
2022-10-23T15:26:44.552Z,100364.16
2022-10-23T15:29:14.724Z,100366.63
2022-10-23T15:31:45.841Z,100362.91
2022-10-23T15:34:18.687Z,100364.06
2022-10-23T15:36:47.934Z,100363.69
2022-10-23T15:39:18.906Z,100359.59
2022-10-23T15:41:47.249Z,100355.72
2022-10-23T15:44:17.894Z,100357.56
2022-10-23T15:46:46.059Z,100363.50
2022-10-23T15:49:16.520Z,100357.34
2022-10-23T15:51:45.316Z,100360.97
2022-10-23T15:54:18.425Z,100351.44
2022-10-23T15:56:46.559Z,100360.09
2022-10-23T15:59:15.055Z,100353.59
2022-10-23T16:01:43.678Z,100350.56
2022-10-23T16:04:12.206Z,100353.47
2022-10-23T16:06:41.753Z,100354.91
2022-10-23T16:09:09.879Z,100366.84
2022-10-23T16:11:39.186Z,100351.97
2022-10-23T16:14:08.134Z,100342.00
2022-10-23T16:16:36.402Z,100345.03
2022-10-23T16:19:05.860Z,100330.06
2022-10-23T16:21:35.997Z,100318.19
2022-10-23T16:24:07.849Z,100309.53
2022-10-23T16:26:36.869Z,100299.22
2022-10-23T16:29:07.703Z,100297.69
2022-10-23T16:31:36.337Z,100274.41
2022-10-23T16:34:05.961Z,100261.72
2022-10-23T16:36:34.598Z,100236.16
2022-10-23T16:39:04.987Z,100229.22
2022-10-23T16:41:33.692Z,100255.66
2022-10-23T16:44:02.214Z,100263.50
2022-10-23T16:46:30.558Z,100272.19
2022-10-23T16:48:59.046Z,100275.63
2022-10-23T16:51:28.112Z,100280.56
2022-10-23T16:53:56.955Z,100279.06
2022-10-23T16:56:30.207Z,100297.00
2022-10-23T17:01:34.229Z,100299.44
2022-10-23T17:04:02.467Z,100320.53
2022-10-23T17:06:33.014Z,100328.72
2022-10-23T17:09:02.425Z,100335.69
2022-10-23T17:11:33.589Z,100322.75
2022-10-23T17:14:03.987Z,100336.97
2022-10-23T17:16:35.067Z,100327.50
2022-10-23T17:19:11.800Z,100330.00
2022-10-23T17:21:49.483Z,100316.41
2022-10-23T17:24:18.337Z,100306.13
2022-10-23T17:26:48.426Z,100300.34
2022-10-23T17:29:17.335Z,100289.44
2022-10-23T17:31:47.426Z,100298.00
2022-10-23T17:34:18.849Z,100301.78
2022-10-23T17:36:49.272Z,100316.16
2022-10-23T17:39:20.211Z,100320.75
2022-10-23T17:41:50.498Z,100318.34
2022-10-23T17:44:18.744Z,100324.09
2022-10-23T17:46:46.825Z,100321.06
2022-10-23T17:49:14.951Z,100310.44
2022-10-23T17:51:43.355Z,100319.38
2022-10-23T17:54:14.685Z,100312.41
2022-10-23T17:56:42.874Z,100314.91
2022-10-23T17:59:15.232Z,100314.00
2022-10-23T18:01:44.546Z,100308.47
2022-10-23T18:04:12.726Z,100303.47
2022-10-23T18:06:45.973Z,100300.06
2022-10-23T18:09:14.262Z,100299.69
2022-10-23T18:11:48.373Z,100303.06
2022-10-23T18:14:19.715Z,100311.34
2022-10-23T18:16:48.142Z,100312.63
2022-10-23T18:19:18.123Z,100299.38
2022-10-23T18:21:46.434Z,100292.25
2022-10-23T18:24:15.105Z,100286.50
2022-10-23T18:26:44.196Z,100275.19
2022-10-23T18:29:13.576Z,100282.78
2022-10-23T18:31:44.036Z,100277.31
2022-10-23T18:34:16.404Z,100281.09
2022-10-23T18:36:48.961Z,100283.53
2022-10-23T18:39:20.337Z,100271.03
2022-10-23T18:41:50.163Z,100275.09
2022-10-23T18:44:20.601Z,100277.25
2022-10-23T18:46:51.808Z,100263.28
2022-10-23T18:49:20.773Z,100258.59
2022-10-23T18:51:49.986Z,100250.25
2022-10-23T18:54:19.566Z,100268.34
2022-10-23T18:56:48.416Z,100258.19
2022-10-23T18:59:18.504Z,100244.25
2022-10-23T19:01:46.935Z,100248.97
2022-10-23T19:04:18.049Z,100244.94
2022-10-23T19:06:47.259Z,100228.63
2022-10-23T19:09:15.725Z,100249.34
2022-10-23T19:11:45.257Z,100251.63
2022-10-23T19:14:13.748Z,100253.13
2022-10-23T19:16:47.011Z,100247.97
2022-10-23T19:19:20.731Z,100231.22
2022-10-23T19:21:50.102Z,100234.88
2022-10-23T19:24:24.156Z,100225.66
2022-10-23T19:26:55.802Z,100225.75
2022-10-23T19:29:27.205Z,100231.53
2022-10-23T19:31:55.539Z,100239.47
2022-10-23T19:34:25.942Z,100232.81
2022-10-23T19:36:54.881Z,100239.94
2022-10-23T19:39:23.435Z,100269.13
2022-10-23T19:41:51.977Z,100270.09
2022-10-23T19:44:21.642Z,100277.06
2022-10-23T19:46:50.310Z,100286.00
2022-10-23T19:49:19.254Z,100301.63
2022-10-23T19:51:51.339Z,100289.34
2022-10-23T19:54:20.382Z,100286.69
2022-10-23T19:56:48.932Z,100295.91
2022-10-23T19:59:17.801Z,100280.88
2022-10-23T20:01:48.078Z,100280.31
2022-10-23T20:04:18.015Z,100274.63
2022-10-23T20:06:49.991Z,100285.53
2022-10-23T20:09:18.309Z,100279.78
2022-10-23T20:11:46.475Z,100283.81
2022-10-23T20:14:14.645Z,100288.13
2022-10-23T20:16:46.820Z,100289.13
2022-10-23T20:21:52.721Z,100294.19
2022-10-23T20:24:21.943Z,100290.25
2022-10-23T20:26:52.214Z,100292.22
2022-10-23T20:29:20.458Z,100299.50
2022-10-23T20:31:49.297Z,100305.22
2022-10-23T20:34:20.493Z,100316.38
2022-10-23T20:36:50.249Z,100306.81
2022-10-23T20:39:21.270Z,100307.78
2022-10-23T20:41:49.367Z,100313.53
2022-10-23T20:44:18.638Z,100299.16
2022-10-23T20:46:47.365Z,100304.03
2022-10-23T20:49:18.093Z,100309.59
2022-10-23T20:51:46.229Z,100318.69
2022-10-23T20:54:14.284Z,100309.91
2022-10-23T20:56:43.681Z,100306.97
2022-10-23T20:59:13.880Z,100309.63
2022-10-23T21:01:44.191Z,100324.16
2022-10-23T21:04:13.967Z,100321.34
2022-10-23T21:07:04.491Z,100329.00
2022-10-23T21:09:31.459Z,100332.38
2022-10-23T21:12:00.879Z,100334.34
2022-10-23T21:14:28.919Z,100335.78
2022-10-23T21:16:56.980Z,100338.69
2022-10-23T21:19:25.019Z,100341.19
2022-10-23T21:21:53.178Z,100344.59
2022-10-23T21:24:21.254Z,100347.75
2022-10-23T21:26:49.362Z,100347.38
2022-10-23T21:29:20.154Z,100351.31
2022-10-23T21:31:53.720Z,100345.44
2022-10-23T21:34:21.574Z,100348.38
2022-10-23T21:37:11.230Z,100346.16
2022-10-23T21:39:37.669Z,100345.31
2022-10-23T21:42:06.114Z,100339.19
2022-10-23T21:44:35.657Z,100346.75
2022-10-23T21:47:03.707Z,100344.53
2022-10-23T21:49:31.796Z,100342.84
2022-10-23T21:51:59.872Z,100340.63
2022-10-23T21:54:27.999Z,100338.94
2022-10-23T21:56:56.078Z,100334.09
2022-10-23T21:59:28.956Z,100347.19
2022-10-23T22:02:00.497Z,100344.53
2022-10-23T22:04:28.631Z,100345.78
2022-10-23T22:06:59.226Z,100360.72
2022-10-23T22:09:27.330Z,100351.22
2022-10-23T22:11:56.201Z,100372.72
2022-10-23T22:14:24.842Z,100396.09
2022-10-23T22:16:53.299Z,100377.59
2022-10-23T22:19:23.603Z,100376.19
2022-10-23T22:21:52.510Z,100360.16
2022-10-23T22:24:20.932Z,100363.78
2022-10-23T22:26:52.206Z,100369.91
2022-10-23T22:29:22.881Z,100386.06
2022-10-23T22:31:51.967Z,100383.41
2022-10-23T22:37:12.169Z,100370.19
2022-10-23T22:39:41.209Z,100373.78
2022-10-23T22:42:09.257Z,100380.63
2022-10-23T22:44:37.313Z,100377.84
2022-10-23T22:47:06.365Z,100370.75
2022-10-23T22:49:35.918Z,100372.50
2022-10-23T22:52:04.153Z,100370.81
2022-10-23T22:54:32.410Z,100365.69
2022-10-23T22:57:00.439Z,100357.19
2022-10-23T22:59:28.523Z,100360.22
2022-10-23T23:01:56.678Z,100353.00
2022-10-23T23:04:40.050Z,100359.28
2022-10-23T23:07:12.413Z,100360.38
2022-10-23T23:09:42.555Z,100341.84
2022-10-23T23:12:12.650Z,100341.03
2022-10-23T23:14:41.253Z,100334.75
2022-10-23T23:17:10.069Z,100332.66
2022-10-23T23:19:38.580Z,100327.66
2022-10-23T23:22:07.030Z,100324.44
2022-10-23T23:24:36.626Z,100328.19
2022-10-23T23:27:04.807Z,100320.81
2022-10-23T23:29:33.318Z,100313.03
2022-10-23T23:32:06.100Z,100312.47
2022-10-23T23:34:34.215Z,100296.31
2022-10-23T23:37:02.211Z,100311.50
2022-10-23T23:39:30.374Z,100310.34
2022-10-23T23:41:59.831Z,100303.41
2022-10-23T23:44:27.919Z,100304.09
2022-10-23T23:46:56.034Z,100301.31
2022-10-23T23:49:24.104Z,100300.63
2022-10-23T23:51:52.222Z,100298.94
2022-10-23T23:54:20.291Z,100295.28
2022-10-23T23:56:48.418Z,100289.59
2022-10-23T23:59:17.762Z,100291.25
